sensor_id;sensor_type;location;lat;lon;timestamp;temperature;humidity
21331;DHT22;10824;51.632;4.950;2024-01-07T00:00:06;2.30;99.90
21331;DHT22;10824;51.632;4.950;2024-01-07T00:02:34;2.30;99.90
21331;DHT22;10824;51.632;4.950;2024-01-07T00:05:11;2.30;99.90
21331;DHT22;10824;51.632;4.950;2024-01-07T00:07:40;2.30;99.90
21331;DHT22;10824;51.632;4.950;2024-01-07T00:10:10;2.30;99.90
21331;DHT22;10824;51.632;4.950;2024-01-07T00:12:38;2.30;99.90
21331;DHT22;10824;51.632;4.950;2024-01-07T00:15:06;2.30;99.90
21331;DHT22;10824;51.632;4.950;2024-01-07T00:17:37;2.30;99.90
21331;DHT22;10824;51.632;4.950;2024-01-07T00:20:07;2.30;99.90
21331;DHT22;10824;51.632;4.950;2024-01-07T00:22:35;2.30;99.90
21331;DHT22;10824;51.632;4.950;2024-01-07T00:25:05;2.30;99.90
21331;DHT22;10824;51.632;4.950;2024-01-07T00:27:36;2.20;99.90
21331;DHT22;10824;51.632;4.950;2024-01-07T00:30:05;2.40;99.90
21331;DHT22;10824;51.632;4.950;2024-01-07T00:32:34;2.40;99.90
21331;DHT22;10824;51.632;4.950;2024-01-07T00:35:02;2.30;99.90
21331;DHT22;10824;51.632;4.950;2024-01-07T00:37:38;2.30;99.90
21331;DHT22;10824;51.632;4.950;2024-01-07T00:40:08;2.30;99.90
21331;DHT22;10824;51.632;4.950;2024-01-07T00:42:35;2.20;99.90
21331;DHT22;10824;51.632;4.950;2024-01-07T00:45:07;2.20;99.90
21331;DHT22;10824;51.632;4.950;2024-01-07T00:47:36;2.10;99.90
21331;DHT22;10824;51.632;4.950;2024-01-07T00:50:04;2.20;99.90
21331;DHT22;10824;51.632;4.950;2024-01-07T00:52:32;2.20;99.90
21331;DHT22;10824;51.632;4.950;2024-01-07T00:55:00;2.30;99.90
21331;DHT22;10824;51.632;4.950;2024-01-07T00:57:30;2.30;99.90
21331;DHT22;10824;51.632;4.950;2024-01-07T00:59:58;2.20;99.90
21331;DHT22;10824;51.632;4.950;2024-01-07T01:02:27;2.10;99.90
21331;DHT22;10824;51.632;4.950;2024-01-07T01:04:56;2.10;99.90
21331;DHT22;10824;51.632;4.950;2024-01-07T01:07:25;2.10;99.90
21331;DHT22;10824;51.632;4.950;2024-01-07T01:09:53;2.10;99.90
21331;DHT22;10824;51.632;4.950;2024-01-07T01:12:21;2.10;99.90
21331;DHT22;10824;51.632;4.950;2024-01-07T01:14:49;2.10;99.90
21331;DHT22;10824;51.632;4.950;2024-01-07T01:17:17;2.10;99.90
21331;DHT22;10824;51.632;4.950;2024-01-07T01:19:44;2.10;99.90
21331;DHT22;10824;51.632;4.950;2024-01-07T01:22:12;2.10;99.90
21331;DHT22;10824;51.632;4.950;2024-01-07T01:24:53;2.10;99.90
21331;DHT22;10824;51.632;4.950;2024-01-07T01:27:24;2.10;99.90
21331;DHT22;10824;51.632;4.950;2024-01-07T01:29:51;2.10;99.90
21331;DHT22;10824;51.632;4.950;2024-01-07T01:32:19;2.10;99.90
21331;DHT22;10824;51.632;4.950;2024-01-07T01:34:47;2.10;99.90
21331;DHT22;10824;51.632;4.950;2024-01-07T01:37:15;2.10;99.90
21331;DHT22;10824;51.632;4.950;2024-01-07T01:39:42;2.10;99.90
21331;DHT22;10824;51.632;4.950;2024-01-07T01:42:10;2.10;99.90
21331;DHT22;10824;51.632;4.950;2024-01-07T01:44:37;2.20;99.90
21331;DHT22;10824;51.632;4.950;2024-01-07T01:47:06;2.10;99.90
21331;DHT22;10824;51.632;4.950;2024-01-07T01:49:34;2.20;99.90
21331;DHT22;10824;51.632;4.950;2024-01-07T01:52:04;2.10;99.90
21331;DHT22;10824;51.632;4.950;2024-01-07T01:54:32;2.10;99.90
21331;DHT22;10824;51.632;4.950;2024-01-07T01:57:00;2.10;99.90
21331;DHT22;10824;51.632;4.950;2024-01-07T01:59:29;2.20;99.90
21331;DHT22;10824;51.632;4.950;2024-01-07T02:01:56;2.20;99.90
21331;DHT22;10824;51.632;4.950;2024-01-07T02:04:24;2.20;99.90
21331;DHT22;10824;51.632;4.950;2024-01-07T02:06:52;2.20;99.90
21331;DHT22;10824;51.632;4.950;2024-01-07T02:09:21;2.20;99.90
21331;DHT22;10824;51.632;4.950;2024-01-07T02:12:05;2.00;99.90
21331;DHT22;10824;51.632;4.950;2024-01-07T02:14:33;2.00;99.90
21331;DHT22;10824;51.632;4.950;2024-01-07T02:17:02;2.10;99.90
21331;DHT22;10824;51.632;4.950;2024-01-07T02:19:29;2.00;99.90
21331;DHT22;10824;51.632;4.950;2024-01-07T02:21:57;2.00;99.90
21331;DHT22;10824;51.632;4.950;2024-01-07T02:24:26;1.90;99.90
21331;DHT22;10824;51.632;4.950;2024-01-07T02:26:55;1.90;99.90
21331;DHT22;10824;51.632;4.950;2024-01-07T02:29:24;2.00;99.90
21331;DHT22;10824;51.632;4.950;2024-01-07T02:31:52;1.90;99.90
21331;DHT22;10824;51.632;4.950;2024-01-07T02:34:20;1.90;99.90
21331;DHT22;10824;51.632;4.950;2024-01-07T02:36:48;2.10;99.90
21331;DHT22;10824;51.632;4.950;2024-01-07T02:39:16;2.00;99.90
21331;DHT22;10824;51.632;4.950;2024-01-07T02:41:44;1.90;99.90
21331;DHT22;10824;51.632;4.950;2024-01-07T02:44:13;1.80;99.90
21331;DHT22;10824;51.632;4.950;2024-01-07T02:46:41;2.00;99.90
21331;DHT22;10824;51.632;4.950;2024-01-07T02:49:08;1.90;99.90
21331;DHT22;10824;51.632;4.950;2024-01-07T02:51:36;2.00;99.90
21331;DHT22;10824;51.632;4.950;2024-01-07T02:54:03;2.00;99.90
21331;DHT22;10824;51.632;4.950;2024-01-07T02:56:32;2.20;99.90
21331;DHT22;10824;51.632;4.950;2024-01-07T02:59:00;2.10;99.90
21331;DHT22;10824;51.632;4.950;2024-01-07T03:01:27;2.00;99.90
21331;DHT22;10824;51.632;4.950;2024-01-07T03:03:57;1.90;99.90
21331;DHT22;10824;51.632;4.950;2024-01-07T03:06:26;2.00;99.90
21331;DHT22;10824;51.632;4.950;2024-01-07T03:08:55;1.90;99.90
21331;DHT22;10824;51.632;4.950;2024-01-07T03:11:22;1.90;99.90
21331;DHT22;10824;51.632;4.950;2024-01-07T03:13:50;2.00;99.90
21331;DHT22;10824;51.632;4.950;2024-01-07T03:16:25;1.90;99.90
21331;DHT22;10824;51.632;4.950;2024-01-07T03:18:52;2.00;99.90
21331;DHT22;10824;51.632;4.950;2024-01-07T03:21:23;2.00;99.90
21331;DHT22;10824;51.632;4.950;2024-01-07T03:23:51;2.10;99.90
21331;DHT22;10824;51.632;4.950;2024-01-07T03:26:21;1.80;99.90
21331;DHT22;10824;51.632;4.950;2024-01-07T03:28:51;1.90;99.90
21331;DHT22;10824;51.632;4.950;2024-01-07T03:31:19;1.80;99.90
21331;DHT22;10824;51.632;4.950;2024-01-07T03:33:48;1.70;99.90
21331;DHT22;10824;51.632;4.950;2024-01-07T03:36:15;1.80;99.90
21331;DHT22;10824;51.632;4.950;2024-01-07T03:38:44;1.90;99.90
21331;DHT22;10824;51.632;4.950;2024-01-07T03:41:19;1.90;99.90
21331;DHT22;10824;51.632;4.950;2024-01-07T03:43:48;1.90;99.90
21331;DHT22;10824;51.632;4.950;2024-01-07T03:46:16;1.80;99.90
21331;DHT22;10824;51.632;4.950;2024-01-07T03:48:45;1.90;99.90
21331;DHT22;10824;51.632;4.950;2024-01-07T03:51:13;1.90;99.90
21331;DHT22;10824;51.632;4.950;2024-01-07T03:53:40;1.90;99.90
21331;DHT22;10824;51.632;4.950;2024-01-07T03:56:11;1.80;99.90
21331;DHT22;10824;51.632;4.950;2024-01-07T03:58:39;1.90;99.90
21331;DHT22;10824;51.632;4.950;2024-01-07T04:01:07;1.90;99.90
21331;DHT22;10824;51.632;4.950;2024-01-07T04:03:37;1.90;99.90
21331;DHT22;10824;51.632;4.950;2024-01-07T04:06:08;1.90;99.90
21331;DHT22;10824;51.632;4.950;2024-01-07T04:08:37;1.90;99.90
21331;DHT22;10824;51.632;4.950;2024-01-07T04:11:05;2.00;99.90
21331;DHT22;10824;51.632;4.950;2024-01-07T04:13:32;2.00;99.90
21331;DHT22;10824;51.632;4.950;2024-01-07T04:15:59;2.00;99.90
21331;DHT22;10824;51.632;4.950;2024-01-07T04:18:28;1.90;99.90
21331;DHT22;10824;51.632;4.950;2024-01-07T04:20:56;2.00;99.90
21331;DHT22;10824;51.632;4.950;2024-01-07T04:23:24;1.90;99.90
21331;DHT22;10824;51.632;4.950;2024-01-07T04:25:52;1.80;99.90
21331;DHT22;10824;51.632;4.950;2024-01-07T04:28:21;1.80;99.90
21331;DHT22;10824;51.632;4.950;2024-01-07T04:30:49;1.90;99.90
21331;DHT22;10824;51.632;4.950;2024-01-07T04:33:17;1.90;99.90
21331;DHT22;10824;51.632;4.950;2024-01-07T04:35:46;1.80;99.90
21331;DHT22;10824;51.632;4.950;2024-01-07T04:38:16;1.90;99.90
21331;DHT22;10824;51.632;4.950;2024-01-07T04:40:43;1.90;99.90
21331;DHT22;10824;51.632;4.950;2024-01-07T04:43:11;1.80;99.90
21331;DHT22;10824;51.632;4.950;2024-01-07T04:45:42;1.70;99.90
21331;DHT22;10824;51.632;4.950;2024-01-07T04:48:10;1.90;99.90
21331;DHT22;10824;51.632;4.950;2024-01-07T04:50:37;1.80;99.90
21331;DHT22;10824;51.632;4.950;2024-01-07T04:53:05;1.80;99.90
21331;DHT22;10824;51.632;4.950;2024-01-07T04:55:36;1.90;99.90
21331;DHT22;10824;51.632;4.950;2024-01-07T04:58:04;1.90;99.90
21331;DHT22;10824;51.632;4.950;2024-01-07T05:00:32;1.90;99.90
21331;DHT22;10824;51.632;4.950;2024-01-07T05:03:00;1.90;99.90
21331;DHT22;10824;51.632;4.950;2024-01-07T05:05:27;2.00;99.90
21331;DHT22;10824;51.632;4.950;2024-01-07T05:07:59;2.00;99.90
21331;DHT22;10824;51.632;4.950;2024-01-07T05:10:28;2.00;99.90
21331;DHT22;10824;51.632;4.950;2024-01-07T05:12:55;1.90;99.90
21331;DHT22;10824;51.632;4.950;2024-01-07T05:15:24;1.90;99.90
21331;DHT22;10824;51.632;4.950;2024-01-07T05:17:55;1.80;99.90
21331;DHT22;10824;51.632;4.950;2024-01-07T05:20:22;1.80;99.90
21331;DHT22;10824;51.632;4.950;2024-01-07T05:22:50;1.80;99.90
21331;DHT22;10824;51.632;4.950;2024-01-07T05:25:20;1.90;99.90
21331;DHT22;10824;51.632;4.950;2024-01-07T05:27:49;1.80;99.90
21331;DHT22;10824;51.632;4.950;2024-01-07T05:30:17;1.90;99.90
21331;DHT22;10824;51.632;4.950;2024-01-07T05:32:45;1.90;99.90
21331;DHT22;10824;51.632;4.950;2024-01-07T05:35:13;1.90;99.90
21331;DHT22;10824;51.632;4.950;2024-01-07T05:37:42;1.90;99.90
21331;DHT22;10824;51.632;4.950;2024-01-07T05:40:10;2.00;99.90
21331;DHT22;10824;51.632;4.950;2024-01-07T05:42:38;1.90;99.90
21331;DHT22;10824;51.632;4.950;2024-01-07T05:45:07;2.00;99.90
21331;DHT22;10824;51.632;4.950;2024-01-07T05:47:35;2.00;99.90
21331;DHT22;10824;51.632;4.950;2024-01-07T05:50:03;2.00;99.90
21331;DHT22;10824;51.632;4.950;2024-01-07T05:52:31;1.80;99.90
21331;DHT22;10824;51.632;4.950;2024-01-07T05:55:00;1.90;99.90
21331;DHT22;10824;51.632;4.950;2024-01-07T05:57:28;1.90;99.90
21331;DHT22;10824;51.632;4.950;2024-01-07T05:59:57;1.90;99.90
21331;DHT22;10824;51.632;4.950;2024-01-07T06:02:26;1.90;99.90
21331;DHT22;10824;51.632;4.950;2024-01-07T06:04:53;1.90;99.90
21331;DHT22;10824;51.632;4.950;2024-01-07T06:07:21;1.90;99.90
21331;DHT22;10824;51.632;4.950;2024-01-07T06:09:48;1.70;99.90
21331;DHT22;10824;51.632;4.950;2024-01-07T06:12:16;1.80;99.90
21331;DHT22;10824;51.632;4.950;2024-01-07T06:14:44;1.80;99.90
21331;DHT22;10824;51.632;4.950;2024-01-07T06:17:12;1.80;99.90
21331;DHT22;10824;51.632;4.950;2024-01-07T06:19:42;1.80;99.90
21331;DHT22;10824;51.632;4.950;2024-01-07T06:22:10;1.90;99.90
21331;DHT22;10824;51.632;4.950;2024-01-07T06:24:37;1.90;99.90
21331;DHT22;10824;51.632;4.950;2024-01-07T06:27:05;1.80;99.90
21331;DHT22;10824;51.632;4.950;2024-01-07T06:29:32;1.70;99.90
21331;DHT22;10824;51.632;4.950;2024-01-07T06:32:00;1.70;99.90
21331;DHT22;10824;51.632;4.950;2024-01-07T06:34:28;1.90;99.90
21331;DHT22;10824;51.632;4.950;2024-01-07T06:36:57;1.80;99.90
21331;DHT22;10824;51.632;4.950;2024-01-07T06:39:25;1.80;99.90
21331;DHT22;10824;51.632;4.950;2024-01-07T06:42:01;1.80;99.90
21331;DHT22;10824;51.632;4.950;2024-01-07T06:44:29;1.70;99.90
21331;DHT22;10824;51.632;4.950;2024-01-07T06:46:57;1.80;99.90
21331;DHT22;10824;51.632;4.950;2024-01-07T06:49:29;1.80;99.90
21331;DHT22;10824;51.632;4.950;2024-01-07T06:51:58;1.90;99.90
21331;DHT22;10824;51.632;4.950;2024-01-07T06:54:26;1.90;99.90
21331;DHT22;10824;51.632;4.950;2024-01-07T06:56:54;1.90;99.90
21331;DHT22;10824;51.632;4.950;2024-01-07T06:59:22;1.90;99.90
21331;DHT22;10824;51.632;4.950;2024-01-07T07:01:50;1.80;99.90
21331;DHT22;10824;51.632;4.950;2024-01-07T07:04:18;1.80;99.90
21331;DHT22;10824;51.632;4.950;2024-01-07T07:06:47;1.80;99.90
21331;DHT22;10824;51.632;4.950;2024-01-07T07:09:15;1.80;99.90
21331;DHT22;10824;51.632;4.950;2024-01-07T07:11:42;1.90;99.90
21331;DHT22;10824;51.632;4.950;2024-01-07T07:14:10;1.90;99.90
21331;DHT22;10824;51.632;4.950;2024-01-07T07:16:39;1.80;99.90
21331;DHT22;10824;51.632;4.950;2024-01-07T07:19:06;1.90;99.90
21331;DHT22;10824;51.632;4.950;2024-01-07T07:21:34;1.90;99.90
21331;DHT22;10824;51.632;4.950;2024-01-07T07:24:01;1.80;99.90
21331;DHT22;10824;51.632;4.950;2024-01-07T07:26:28;1.80;99.90
21331;DHT22;10824;51.632;4.950;2024-01-07T07:28:56;1.80;99.90
21331;DHT22;10824;51.632;4.950;2024-01-07T07:31:24;1.70;99.90
21331;DHT22;10824;51.632;4.950;2024-01-07T07:33:52;1.70;99.90
21331;DHT22;10824;51.632;4.950;2024-01-07T07:36:20;1.70;99.90
21331;DHT22;10824;51.632;4.950;2024-01-07T07:38:49;1.80;99.90
21331;DHT22;10824;51.632;4.950;2024-01-07T07:41:17;1.70;99.90
21331;DHT22;10824;51.632;4.950;2024-01-07T07:43:46;1.70;99.90
21331;DHT22;10824;51.632;4.950;2024-01-07T07:46:14;1.70;99.90
21331;DHT22;10824;51.632;4.950;2024-01-07T07:48:44;1.60;99.90
21331;DHT22;10824;51.632;4.950;2024-01-07T07:51:11;1.80;99.90
21331;DHT22;10824;51.632;4.950;2024-01-07T07:53:39;1.70;99.90
21331;DHT22;10824;51.632;4.950;2024-01-07T07:56:08;1.80;99.90
21331;DHT22;10824;51.632;4.950;2024-01-07T07:58:37;1.70;99.90
21331;DHT22;10824;51.632;4.950;2024-01-07T08:01:09;1.70;99.90
21331;DHT22;10824;51.632;4.950;2024-01-07T08:03:37;1.70;99.90
21331;DHT22;10824;51.632;4.950;2024-01-07T08:06:05;1.70;99.90
21331;DHT22;10824;51.632;4.950;2024-01-07T08:08:38;1.70;99.90
21331;DHT22;10824;51.632;4.950;2024-01-07T08:11:05;1.80;99.90
21331;DHT22;10824;51.632;4.950;2024-01-07T08:13:37;1.80;99.90
21331;DHT22;10824;51.632;4.950;2024-01-07T08:16:05;1.60;99.90
21331;DHT22;10824;51.632;4.950;2024-01-07T08:18:33;1.60;99.90
21331;DHT22;10824;51.632;4.950;2024-01-07T08:21:01;1.70;99.90
21331;DHT22;10824;51.632;4.950;2024-01-07T08:23:30;1.60;99.90
21331;DHT22;10824;51.632;4.950;2024-01-07T08:26:07;1.50;99.90
21331;DHT22;10824;51.632;4.950;2024-01-07T08:28:48;1.60;99.90
21331;DHT22;10824;51.632;4.950;2024-01-07T08:31:33;1.50;99.90
21331;DHT22;10824;51.632;4.950;2024-01-07T08:34:09;1.60;99.90
21331;DHT22;10824;51.632;4.950;2024-01-07T08:37:20;1.60;99.90
21331;DHT22;10824;51.632;4.950;2024-01-07T08:45:34;1.60;99.90
21331;DHT22;10824;51.632;4.950;2024-01-07T08:53:07;1.60;99.90
21331;DHT22;10824;51.632;4.950;2024-01-07T08:56:03;1.60;99.90
21331;DHT22;10824;51.632;4.950;2024-01-07T09:06:16;1.60;99.90
21331;DHT22;10824;51.632;4.950;2024-01-07T09:09:33;1.60;99.90
21331;DHT22;10824;51.632;4.950;2024-01-07T09:12:56;1.70;99.90
21331;DHT22;10824;51.632;4.950;2024-01-07T09:15:56;1.60;99.90
21331;DHT22;10824;51.632;4.950;2024-01-07T09:22:20;1.60;99.90
21331;DHT22;10824;51.632;4.950;2024-01-07T09:25:47;1.60;99.90
21331;DHT22;10824;51.632;4.950;2024-01-07T09:29:18;1.70;99.90
21331;DHT22;10824;51.632;4.950;2024-01-07T09:36:00;1.60;99.90
21331;DHT22;10824;51.632;4.950;2024-01-07T09:39:33;1.60;99.90
21331;DHT22;10824;51.632;4.950;2024-01-07T09:43:22;1.60;99.90
21331;DHT22;10824;51.632;4.950;2024-01-07T09:50:35;1.60;99.90
21331;DHT22;10824;51.632;4.950;2024-01-07T09:54:26;1.60;99.90
21331;DHT22;10824;51.632;4.950;2024-01-07T09:57:36;1.50;99.90
21331;DHT22;10824;51.632;4.950;2024-01-07T10:12:51;1.50;99.90
21331;DHT22;10824;51.632;4.950;2024-01-07T10:20:24;1.40;99.90
21331;DHT22;10824;51.632;4.950;2024-01-07T10:22:51;1.40;99.90
21331;DHT22;10824;51.632;4.950;2024-01-07T10:25:19;1.50;99.90
21331;DHT22;10824;51.632;4.950;2024-01-07T10:27:47;1.40;99.90
21331;DHT22;10824;51.632;4.950;2024-01-07T10:30:15;1.50;99.90
21331;DHT22;10824;51.632;4.950;2024-01-07T10:32:48;1.50;99.90
21331;DHT22;10824;51.632;4.950;2024-01-07T10:35:18;1.40;99.90
21331;DHT22;10824;51.632;4.950;2024-01-07T10:37:47;1.50;99.90
21331;DHT22;10824;51.632;4.950;2024-01-07T10:40:16;1.50;99.90
21331;DHT22;10824;51.632;4.950;2024-01-07T10:42:48;1.50;99.90
21331;DHT22;10824;51.632;4.950;2024-01-07T10:45:17;1.50;99.90
21331;DHT22;10824;51.632;4.950;2024-01-07T10:47:49;1.40;99.90
21331;DHT22;10824;51.632;4.950;2024-01-07T10:50:24;1.50;99.90
21331;DHT22;10824;51.632;4.950;2024-01-07T10:53:02;1.50;99.90
21331;DHT22;10824;51.632;4.950;2024-01-07T10:55:34;1.50;99.90
21331;DHT22;10824;51.632;4.950;2024-01-07T10:58:06;1.40;99.90
21331;DHT22;10824;51.632;4.950;2024-01-07T11:00:38;1.50;99.90
21331;DHT22;10824;51.632;4.950;2024-01-07T11:03:18;1.30;99.90
21331;DHT22;10824;51.632;4.950;2024-01-07T11:05:54;1.30;99.90
21331;DHT22;10824;51.632;4.950;2024-01-07T11:11:54;1.30;99.90
21331;DHT22;10824;51.632;4.950;2024-01-07T11:13:59;1.30;99.90
21331;DHT22;10824;51.632;4.950;2024-01-07T11:16:42;1.30;99.90
21331;DHT22;10824;51.632;4.950;2024-01-07T11:19:14;1.40;99.90
21331;DHT22;10824;51.632;4.950;2024-01-07T11:21:42;1.40;99.90
21331;DHT22;10824;51.632;4.950;2024-01-07T11:24:37;1.50;99.90
21331;DHT22;10824;51.632;4.950;2024-01-07T11:27:10;1.40;99.90
21331;DHT22;10824;51.632;4.950;2024-01-07T11:29:39;1.40;99.90
21331;DHT22;10824;51.632;4.950;2024-01-07T11:32:22;1.50;99.90
21331;DHT22;10824;51.632;4.950;2024-01-07T11:34:53;1.40;99.90
21331;DHT22;10824;51.632;4.950;2024-01-07T11:37:21;1.30;99.90
21331;DHT22;10824;51.632;4.950;2024-01-07T11:39:54;1.30;99.90
21331;DHT22;10824;51.632;4.950;2024-01-07T11:42:25;1.30;99.90
21331;DHT22;10824;51.632;4.950;2024-01-07T11:44:55;1.30;99.90
21331;DHT22;10824;51.632;4.950;2024-01-07T11:47:23;1.40;99.90
21331;DHT22;10824;51.632;4.950;2024-01-07T11:49:51;1.40;99.90
21331;DHT22;10824;51.632;4.950;2024-01-07T11:52:19;1.50;99.90
21331;DHT22;10824;51.632;4.950;2024-01-07T11:54:49;1.40;99.90
21331;DHT22;10824;51.632;4.950;2024-01-07T11:57:16;1.50;99.90
21331;DHT22;10824;51.632;4.950;2024-01-07T11:59:48;1.30;99.90
21331;DHT22;10824;51.632;4.950;2024-01-07T12:02:16;1.40;99.90
21331;DHT22;10824;51.632;4.950;2024-01-07T12:04:45;1.50;99.90
21331;DHT22;10824;51.632;4.950;2024-01-07T12:07:13;1.60;99.90
21331;DHT22;10824;51.632;4.950;2024-01-07T12:09:42;1.50;99.90
21331;DHT22;10824;51.632;4.950;2024-01-07T12:12:09;1.50;99.90
21331;DHT22;10824;51.632;4.950;2024-01-07T12:14:40;1.60;99.90
21331;DHT22;10824;51.632;4.950;2024-01-07T12:17:09;1.50;99.90
21331;DHT22;10824;51.632;4.950;2024-01-07T12:19:40;1.50;99.90
21331;DHT22;10824;51.632;4.950;2024-01-07T12:22:08;1.60;99.90
21331;DHT22;10824;51.632;4.950;2024-01-07T12:24:35;1.70;99.90
21331;DHT22;10824;51.632;4.950;2024-01-07T12:27:07;1.70;99.90
21331;DHT22;10824;51.632;4.950;2024-01-07T12:29:35;1.60;99.90
21331;DHT22;10824;51.632;4.950;2024-01-07T12:32:02;1.50;99.90
21331;DHT22;10824;51.632;4.950;2024-01-07T12:34:32;1.50;99.90
21331;DHT22;10824;51.632;4.950;2024-01-07T12:37:00;1.50;99.90
21331;DHT22;10824;51.632;4.950;2024-01-07T12:39:29;1.40;99.90
21331;DHT22;10824;51.632;4.950;2024-01-07T12:41:59;1.60;99.90
21331;DHT22;10824;51.632;4.950;2024-01-07T12:44:29;1.50;99.90
21331;DHT22;10824;51.632;4.950;2024-01-07T12:46:58;1.60;99.90
21331;DHT22;10824;51.632;4.950;2024-01-07T12:49:26;1.50;99.90
21331;DHT22;10824;51.632;4.950;2024-01-07T12:51:53;1.60;99.90
21331;DHT22;10824;51.632;4.950;2024-01-07T12:54:23;1.70;99.90
21331;DHT22;10824;51.632;4.950;2024-01-07T12:56:56;1.70;99.90
21331;DHT22;10824;51.632;4.950;2024-01-07T12:59:26;1.70;99.90
21331;DHT22;10824;51.632;4.950;2024-01-07T13:01:55;1.60;99.90
21331;DHT22;10824;51.632;4.950;2024-01-07T13:04:23;1.70;99.90
21331;DHT22;10824;51.632;4.950;2024-01-07T13:06:52;1.60;99.90
21331;DHT22;10824;51.632;4.950;2024-01-07T13:09:22;1.60;99.90
21331;DHT22;10824;51.632;4.950;2024-01-07T13:11:52;1.60;99.90
21331;DHT22;10824;51.632;4.950;2024-01-07T13:14:23;1.60;99.90
21331;DHT22;10824;51.632;4.950;2024-01-07T13:17:18;1.70;99.90
21331;DHT22;10824;51.632;4.950;2024-01-07T13:19:46;1.70;99.90
21331;DHT22;10824;51.632;4.950;2024-01-07T13:22:19;1.50;99.90
21331;DHT22;10824;51.632;4.950;2024-01-07T13:24:52;1.50;99.90
21331;DHT22;10824;51.632;4.950;2024-01-07T13:27:23;1.50;99.90
21331;DHT22;10824;51.632;4.950;2024-01-07T13:29:52;1.50;99.90
21331;DHT22;10824;51.632;4.950;2024-01-07T13:32:21;1.70;99.90
21331;DHT22;10824;51.632;4.950;2024-01-07T13:34:52;1.60;99.90
21331;DHT22;10824;51.632;4.950;2024-01-07T13:37:23;1.60;1.00
21331;DHT22;10824;51.632;4.950;2024-01-07T13:39:54;1.50;1.00
21331;DHT22;10824;51.632;4.950;2024-01-07T13:42:24;1.60;1.00
21331;DHT22;10824;51.632;4.950;2024-01-07T13:44:51;1.70;1.00
21331;DHT22;10824;51.632;4.950;2024-01-07T13:47:18;1.60;24.60
21331;DHT22;10824;51.632;4.950;2024-01-07T13:49:48;1.70;1.00
21331;DHT22;10824;51.632;4.950;2024-01-07T13:52:18;1.90;1.00
21331;DHT22;10824;51.632;4.950;2024-01-07T13:54:49;1.90;1.00
21331;DHT22;10824;51.632;4.950;2024-01-07T13:57:17;1.80;99.90
21331;DHT22;10824;51.632;4.950;2024-01-07T13:59:45;1.70;1.00
21331;DHT22;10824;51.632;4.950;2024-01-07T14:02:13;1.80;1.00
21331;DHT22;10824;51.632;4.950;2024-01-07T14:04:40;1.80;1.00
21331;DHT22;10824;51.632;4.950;2024-01-07T14:07:07;1.70;1.00
21331;DHT22;10824;51.632;4.950;2024-01-07T14:09:34;1.70;5.30
21331;DHT22;10824;51.632;4.950;2024-01-07T14:12:03;1.60;99.90
21331;DHT22;10824;51.632;4.950;2024-01-07T14:14:34;1.60;33.10
21331;DHT22;10824;51.632;4.950;2024-01-07T14:17:04;1.70;1.00
21331;DHT22;10824;51.632;4.950;2024-01-07T14:19:33;1.70;1.00
21331;DHT22;10824;51.632;4.950;2024-01-07T14:22:02;1.80;1.00
21331;DHT22;10824;51.632;4.950;2024-01-07T14:24:29;1.90;1.00
21331;DHT22;10824;51.632;4.950;2024-01-07T14:26:57;1.90;1.00
21331;DHT22;10824;51.632;4.950;2024-01-07T14:29:26;1.80;99.90
21331;DHT22;10824;51.632;4.950;2024-01-07T14:31:53;1.90;99.90
21331;DHT22;10824;51.632;4.950;2024-01-07T14:34:25;1.80;1.00
21331;DHT22;10824;51.632;4.950;2024-01-07T14:36:53;1.70;99.90
21331;DHT22;10824;51.632;4.950;2024-01-07T14:39:22;1.60;99.90
21331;DHT22;10824;51.632;4.950;2024-01-07T14:41:52;1.50;1.00
21331;DHT22;10824;51.632;4.950;2024-01-07T14:44:24;1.40;1.00
21331;DHT22;10824;51.632;4.950;2024-01-07T14:47:12;1.40;1.00
21331;DHT22;10824;51.632;4.950;2024-01-07T14:49:43;1.30;99.90
21331;DHT22;10824;51.632;4.950;2024-01-07T14:52:11;1.30;99.90
21331;DHT22;10824;51.632;4.950;2024-01-07T14:54:40;1.30;99.90
21331;DHT22;10824;51.632;4.950;2024-01-07T14:57:09;1.20;99.90
21331;DHT22;10824;51.632;4.950;2024-01-07T14:59:42;1.40;99.90
21331;DHT22;10824;51.632;4.950;2024-01-07T15:02:12;1.40;1.00
21331;DHT22;10824;51.632;4.950;2024-01-07T15:04:41;1.20;99.90
21331;DHT22;10824;51.632;4.950;2024-01-07T15:07:09;1.20;99.90
21331;DHT22;10824;51.632;4.950;2024-01-07T15:09:40;1.20;99.90
21331;DHT22;10824;51.632;4.950;2024-01-07T15:12:08;1.20;99.90
21331;DHT22;10824;51.632;4.950;2024-01-07T15:14:36;1.20;99.90
21331;DHT22;10824;51.632;4.950;2024-01-07T15:17:04;1.30;1.00
21331;DHT22;10824;51.632;4.950;2024-01-07T15:19:33;1.20;99.90
21331;DHT22;10824;51.632;4.950;2024-01-07T15:22:02;1.10;99.90
21331;DHT22;10824;51.632;4.950;2024-01-07T15:24:33;1.10;1.00
21331;DHT22;10824;51.632;4.950;2024-01-07T15:27:03;1.00;99.90
21331;DHT22;10824;51.632;4.950;2024-01-07T15:29:31;0.90;99.90
21331;DHT22;10824;51.632;4.950;2024-01-07T15:32:03;0.90;99.90
21331;DHT22;10824;51.632;4.950;2024-01-07T15:34:35;0.90;33.80
21331;DHT22;10824;51.632;4.950;2024-01-07T15:37:03;0.90;13.50
21331;DHT22;10824;51.632;4.950;2024-01-07T15:39:32;0.90;94.00
21331;DHT22;10824;51.632;4.950;2024-01-07T15:42:00;0.80;41.80
21331;DHT22;10824;51.632;4.950;2024-01-07T15:44:37;0.80;99.90
21331;DHT22;10824;51.632;4.950;2024-01-07T15:50:17;0.60;77.40
21331;DHT22;10824;51.632;4.950;2024-01-07T15:52:45;0.80;99.90
21331;DHT22;10824;51.632;4.950;2024-01-07T15:55:17;0.70;99.90
21331;DHT22;10824;51.632;4.950;2024-01-07T15:57:45;0.70;99.90
21331;DHT22;10824;51.632;4.950;2024-01-07T16:00:14;0.70;1.00
21331;DHT22;10824;51.632;4.950;2024-01-07T16:02:44;0.70;1.00
21331;DHT22;10824;51.632;4.950;2024-01-07T16:05:25;0.70;1.00
21331;DHT22;10824;51.632;4.950;2024-01-07T16:08:17;0.60;1.00
21331;DHT22;10824;51.632;4.950;2024-01-07T16:10:44;0.60;22.20
21331;DHT22;10824;51.632;4.950;2024-01-07T16:13:12;0.60;83.00
21331;DHT22;10824;51.632;4.950;2024-01-07T16:15:40;0.60;99.90
21331;DHT22;10824;51.632;4.950;2024-01-07T16:18:08;0.60;99.90
21331;DHT22;10824;51.632;4.950;2024-01-07T16:20:38;0.60;66.10
21331;DHT22;10824;51.632;4.950;2024-01-07T16:23:09;0.60;99.90
21331;DHT22;10824;51.632;4.950;2024-01-07T16:25:39;0.60;99.90
21331;DHT22;10824;51.632;4.950;2024-01-07T16:28:08;0.60;99.90
21331;DHT22;10824;51.632;4.950;2024-01-07T16:30:37;0.60;99.90
21331;DHT22;10824;51.632;4.950;2024-01-07T16:33:08;0.50;99.90
21331;DHT22;10824;51.632;4.950;2024-01-07T16:35:38;0.50;99.90
21331;DHT22;10824;51.632;4.950;2024-01-07T16:38:10;0.50;99.90
21331;DHT22;10824;51.632;4.950;2024-01-07T16:40:41;0.50;99.90
21331;DHT22;10824;51.632;4.950;2024-01-07T16:43:09;0.50;99.90
21331;DHT22;10824;51.632;4.950;2024-01-07T16:45:38;0.50;99.90
21331;DHT22;10824;51.632;4.950;2024-01-07T16:48:06;0.50;99.90
21331;DHT22;10824;51.632;4.950;2024-01-07T16:50:34;0.50;99.90
21331;DHT22;10824;51.632;4.950;2024-01-07T16:53:03;0.50;99.90
21331;DHT22;10824;51.632;4.950;2024-01-07T16:55:33;0.40;99.90
21331;DHT22;10824;51.632;4.950;2024-01-07T16:58:03;0.40;99.90
21331;DHT22;10824;51.632;4.950;2024-01-07T17:00:30;0.40;1.00
21331;DHT22;10824;51.632;4.950;2024-01-07T17:03:01;0.40;1.00
21331;DHT22;10824;51.632;4.950;2024-01-07T17:05:29;0.40;1.00